sensor_id;sensor_type;location;lat;lon;timestamp;P1;durP1;ratioP1;P2;durP2;ratioP2
20623;SDS011;10471;42.736;23.346;2024-01-27T00:00:09;32.07;;;9.20;;
20623;SDS011;10471;42.736;23.346;2024-01-27T00:02:35;37.20;;;11.30;;
20623;SDS011;10471;42.736;23.346;2024-01-27T00:05:01;22.73;;;8.87;;
20623;SDS011;10471;42.736;23.346;2024-01-27T00:07:27;20.57;;;8.63;;
20623;SDS011;10471;42.736;23.346;2024-01-27T00:09:53;14.20;;;6.53;;
20623;SDS011;10471;42.736;23.346;2024-01-27T00:12:23;20.00;;;7.40;;
20623;SDS011;10471;42.736;23.346;2024-01-27T00:14:48;19.37;;;7.23;;
20623;SDS011;10471;42.736;23.346;2024-01-27T00:17:14;15.23;;;6.33;;
20623;SDS011;10471;42.736;23.346;2024-01-27T00:19:39;36.40;;;10.77;;
20623;SDS011;10471;42.736;23.346;2024-01-27T00:22:05;42.17;;;11.73;;
20623;SDS011;10471;42.736;23.346;2024-01-27T00:24:31;50.10;;;13.63;;
20623;SDS011;10471;42.736;23.346;2024-01-27T00:26:57;45.67;;;12.03;;
20623;SDS011;10471;42.736;23.346;2024-01-27T00:29:22;39.33;;;10.83;;
20623;SDS011;10471;42.736;23.346;2024-01-27T00:31:47;38.57;;;12.17;;
20623;SDS011;10471;42.736;23.346;2024-01-27T00:34:14;30.60;;;9.90;;
20623;SDS011;10471;42.736;23.346;2024-01-27T00:36:39;30.33;;;9.60;;
20623;SDS011;10471;42.736;23.346;2024-01-27T00:39:06;31.00;;;9.43;;
20623;SDS011;10471;42.736;23.346;2024-01-27T00:41:31;35.17;;;9.90;;
20623;SDS011;10471;42.736;23.346;2024-01-27T00:43:56;43.43;;;13.83;;
20623;SDS011;10471;42.736;23.346;2024-01-27T00:46:22;23.70;;;8.63;;
20623;SDS011;10471;42.736;23.346;2024-01-27T00:48:48;16.97;;;7.67;;
20623;SDS011;10471;42.736;23.346;2024-01-27T00:51:13;21.13;;;7.43;;
20623;SDS011;10471;42.736;23.346;2024-01-27T00:53:39;22.60;;;8.57;;
20623;SDS011;10471;42.736;23.346;2024-01-27T00:56:04;18.17;;;8.20;;
20623;SDS011;10471;42.736;23.346;2024-01-27T00:58:30;13.03;;;5.93;;
20623;SDS011;10471;42.736;23.346;2024-01-27T01:00:56;15.60;;;5.80;;
20623;SDS011;10471;42.736;23.346;2024-01-27T01:03:21;13.23;;;6.00;;
20623;SDS011;10471;42.736;23.346;2024-01-27T01:05:47;12.73;;;5.00;;
20623;SDS011;10471;42.736;23.346;2024-01-27T01:08:12;11.90;;;5.50;;
20623;SDS011;10471;42.736;23.346;2024-01-27T01:10:37;11.43;;;5.50;;
20623;SDS011;10471;42.736;23.346;2024-01-27T01:13:03;14.00;;;5.73;;
20623;SDS011;10471;42.736;23.346;2024-01-27T01:15:29;12.63;;;5.40;;
20623;SDS011;10471;42.736;23.346;2024-01-27T01:17:54;12.20;;;5.73;;
20623;SDS011;10471;42.736;23.346;2024-01-27T01:20:20;11.83;;;6.00;;
20623;SDS011;10471;42.736;23.346;2024-01-27T01:22:45;13.97;;;5.27;;
20623;SDS011;10471;42.736;23.346;2024-01-27T01:25:11;13.20;;;5.53;;
20623;SDS011;10471;42.736;23.346;2024-01-27T01:27:36;12.00;;;5.43;;
20623;SDS011;10471;42.736;23.346;2024-01-27T01:30:01;13.17;;;5.87;;
20623;SDS011;10471;42.736;23.346;2024-01-27T01:32:27;12.37;;;5.83;;
20623;SDS011;10471;42.736;23.346;2024-01-27T01:34:52;14.23;;;5.73;;
20623;SDS011;10471;42.736;23.346;2024-01-27T01:37:17;13.90;;;6.40;;
20623;SDS011;10471;42.736;23.346;2024-01-27T01:39:43;10.10;;;5.60;;
20623;SDS011;10471;42.736;23.346;2024-01-27T01:42:08;11.70;;;5.77;;
20623;SDS011;10471;42.736;23.346;2024-01-27T01:44:33;14.33;;;6.00;;
20623;SDS011;10471;42.736;23.346;2024-01-27T01:46:59;11.97;;;5.43;;
20623;SDS011;10471;42.736;23.346;2024-01-27T01:49:24;12.63;;;5.40;;
20623;SDS011;10471;42.736;23.346;2024-01-27T01:51:50;13.30;;;5.60;;
20623;SDS011;10471;42.736;23.346;2024-01-27T01:54:15;13.93;;;6.00;;
20623;SDS011;10471;42.736;23.346;2024-01-27T01:56:42;14.60;;;6.03;;
20623;SDS011;10471;42.736;23.346;2024-01-27T01:59:07;30.23;;;12.90;;
20623;SDS011;10471;42.736;23.346;2024-01-27T02:01:33;33.00;;;13.10;;
20623;SDS011;10471;42.736;23.346;2024-01-27T02:03:58;22.87;;;9.93;;
20623;SDS011;10471;42.736;23.346;2024-01-27T02:06:24;11.13;;;5.43;;
20623;SDS011;10471;42.736;23.346;2024-01-27T02:08:50;15.97;;;6.37;;
20623;SDS011;10471;42.736;23.346;2024-01-27T02:11:16;17.83;;;9.40;;
20623;SDS011;10471;42.736;23.346;2024-01-27T02:13:41;12.10;;;5.43;;
20623;SDS011;10471;42.736;23.346;2024-01-27T02:16:07;11.60;;;5.80;;
20623;SDS011;10471;42.736;23.346;2024-01-27T02:18:33;13.30;;;5.20;;
20623;SDS011;10471;42.736;23.346;2024-01-27T02:20:58;11.93;;;4.87;;
20623;SDS011;10471;42.736;23.346;2024-01-27T02:23:23;15.80;;;6.50;;
20623;SDS011;10471;42.736;23.346;2024-01-27T02:25:49;11.10;;;5.07;;
20623;SDS011;10471;42.736;23.346;2024-01-27T02:28:15;9.00;;;4.30;;
20623;SDS011;10471;42.736;23.346;2024-01-27T02:30:41;13.57;;;5.47;;
20623;SDS011;10471;42.736;23.346;2024-01-27T02:33:07;16.87;;;5.23;;
20623;SDS011;10471;42.736;23.346;2024-01-27T02:35:32;11.60;;;5.50;;
20623;SDS011;10471;42.736;23.346;2024-01-27T02:37:57;11.87;;;5.80;;
20623;SDS011;10471;42.736;23.346;2024-01-27T02:40:23;14.90;;;6.90;;
20623;SDS011;10471;42.736;23.346;2024-01-27T02:42:48;10.93;;;6.37;;
20623;SDS011;10471;42.736;23.346;2024-01-27T02:45:14;15.10;;;6.47;;
20623;SDS011;10471;42.736;23.346;2024-01-27T02:47:39;14.10;;;5.83;;
20623;SDS011;10471;42.736;23.346;2024-01-27T02:50:05;12.23;;;5.43;;
20623;SDS011;10471;42.736;23.346;2024-01-27T02:52:33;9.53;;;5.40;;
20623;SDS011;10471;42.736;23.346;2024-01-27T02:54:59;13.33;;;5.60;;
20623;SDS011;10471;42.736;23.346;2024-01-27T02:57:25;16.20;;;5.60;;
20623;SDS011;10471;42.736;23.346;2024-01-27T02:59:50;12.10;;;4.73;;
20623;SDS011;10471;42.736;23.346;2024-01-27T03:02:15;13.03;;;4.47;;
20623;SDS011;10471;42.736;23.346;2024-01-27T03:04:41;11.43;;;4.80;;
20623;SDS011;10471;42.736;23.346;2024-01-27T03:07:06;9.03;;;4.83;;
20623;SDS011;10471;42.736;23.346;2024-01-27T03:09:32;11.17;;;5.00;;
20623;SDS011;10471;42.736;23.346;2024-01-27T03:11:57;13.77;;;5.50;;
20623;SDS011;10471;42.736;23.346;2024-01-27T03:14:23;9.30;;;4.77;;
20623;SDS011;10471;42.736;23.346;2024-01-27T03:16:49;9.30;;;4.87;;
20623;SDS011;10471;42.736;23.346;2024-01-27T03:19:14;11.47;;;4.53;;
20623;SDS011;10471;42.736;23.346;2024-01-27T03:21:39;11.70;;;5.33;;
20623;SDS011;10471;42.736;23.346;2024-01-27T03:24:05;10.10;;;5.10;;
20623;SDS011;10471;42.736;23.346;2024-01-27T03:26:30;10.83;;;4.87;;
20623;SDS011;10471;42.736;23.346;2024-01-27T03:28:56;10.33;;;4.00;;
20623;SDS011;10471;42.736;23.346;2024-01-27T03:31:21;14.10;;;4.30;;
20623;SDS011;10471;42.736;23.346;2024-01-27T03:33:46;9.97;;;4.47;;
20623;SDS011;10471;42.736;23.346;2024-01-27T03:36:12;9.70;;;4.03;;
20623;SDS011;10471;42.736;23.346;2024-01-27T03:38:39;9.83;;;4.47;;
20623;SDS011;10471;42.736;23.346;2024-01-27T03:41:06;8.80;;;4.00;;
20623;SDS011;10471;42.736;23.346;2024-01-27T03:43:32;7.43;;;3.70;;
20623;SDS011;10471;42.736;23.346;2024-01-27T03:45:58;11.77;;;3.93;;
20623;SDS011;10471;42.736;23.346;2024-01-27T03:48:24;7.07;;;3.50;;
20623;SDS011;10471;42.736;23.346;2024-01-27T03:50:49;7.60;;;3.27;;
20623;SDS011;10471;42.736;23.346;2024-01-27T03:53:15;9.17;;;3.60;;
20623;SDS011;10471;42.736;23.346;2024-01-27T03:55:43;10.80;;;3.60;;
20623;SDS011;10471;42.736;23.346;2024-01-27T03:58:08;8.53;;;3.97;;
20623;SDS011;10471;42.736;23.346;2024-01-27T04:00:33;9.80;;;4.67;;
20623;SDS011;10471;42.736;23.346;2024-01-27T04:02:59;11.67;;;4.13;;
20623;SDS011;10471;42.736;23.346;2024-01-27T04:05:25;16.83;;;5.00;;
20623;SDS011;10471;42.736;23.346;2024-01-27T04:07:51;16.33;;;4.73;;
20623;SDS011;10471;42.736;23.346;2024-01-27T04:10:17;12.33;;;6.00;;
20623;SDS011;10471;42.736;23.346;2024-01-27T04:12:43;11.27;;;5.90;;
20623;SDS011;10471;42.736;23.346;2024-01-27T04:15:09;14.37;;;5.23;;
20623;SDS011;10471;42.736;23.346;2024-01-27T04:17:35;10.70;;;4.40;;
20623;SDS011;10471;42.736;23.346;2024-01-27T04:20:01;8.37;;;4.33;;
20623;SDS011;10471;42.736;23.346;2024-01-27T04:22:27;15.27;;;5.67;;
20623;SDS011;10471;42.736;23.346;2024-01-27T04:24:53;12.13;;;5.53;;
20623;SDS011;10471;42.736;23.346;2024-01-27T04:27:19;11.87;;;5.23;;
20623;SDS011;10471;42.736;23.346;2024-01-27T04:29:44;17.17;;;5.70;;
20623;SDS011;10471;42.736;23.346;2024-01-27T04:32:09;15.23;;;5.33;;
20623;SDS011;10471;42.736;23.346;2024-01-27T04:34:35;16.13;;;5.80;;
20623;SDS011;10471;42.736;23.346;2024-01-27T04:37:01;11.33;;;5.00;;
20623;SDS011;10471;42.736;23.346;2024-01-27T04:39:26;15.60;;;6.33;;
20623;SDS011;10471;42.736;23.346;2024-01-27T04:41:51;12.07;;;5.33;;
20623;SDS011;10471;42.736;23.346;2024-01-27T04:44:17;14.07;;;6.47;;
20623;SDS011;10471;42.736;23.346;2024-01-27T04:46:45;14.23;;;6.30;;
20623;SDS011;10471;42.736;23.346;2024-01-27T04:49:10;12.70;;;4.90;;
20623;SDS011;10471;42.736;23.346;2024-01-27T04:51:36;12.53;;;5.13;;
20623;SDS011;10471;42.736;23.346;2024-01-27T04:54:01;12.07;;;5.23;;
20623;SDS011;10471;42.736;23.346;2024-01-27T04:56:27;17.63;;;5.83;;
20623;SDS011;10471;42.736;23.346;2024-01-27T04:58:52;17.03;;;5.73;;
20623;SDS011;10471;42.736;23.346;2024-01-27T05:01:18;13.53;;;5.30;;
20623;SDS011;10471;42.736;23.346;2024-01-27T05:03:43;12.77;;;5.10;;
20623;SDS011;10471;42.736;23.346;2024-01-27T05:06:09;11.40;;;5.27;;
20623;SDS011;10471;42.736;23.346;2024-01-27T05:08:34;13.97;;;5.50;;
20623;SDS011;10471;42.736;23.346;2024-01-27T05:11:00;13.57;;;5.57;;
20623;SDS011;10471;42.736;23.346;2024-01-27T05:13:25;12.03;;;7.20;;
20623;SDS011;10471;42.736;23.346;2024-01-27T05:15:51;18.17;;;7.40;;
20623;SDS011;10471;42.736;23.346;2024-01-27T05:18:16;20.57;;;7.90;;
20623;SDS011;10471;42.736;23.346;2024-01-27T05:20:41;16.10;;;8.63;;
20623;SDS011;10471;42.736;23.346;2024-01-27T05:23:07;13.20;;;7.47;;
20623;SDS011;10471;42.736;23.346;2024-01-27T05:25:32;16.10;;;7.87;;
20623;SDS011;10471;42.736;23.346;2024-01-27T05:27:58;15.77;;;8.23;;
20623;SDS011;10471;42.736;23.346;2024-01-27T05:30:23;24.17;;;10.43;;
20623;SDS011;10471;42.736;23.346;2024-01-27T05:32:48;16.00;;;8.67;;
20623;SDS011;10471;42.736;23.346;2024-01-27T05:35:14;23.27;;;10.13;;
20623;SDS011;10471;42.736;23.346;2024-01-27T05:37:39;27.57;;;11.63;;
20623;SDS011;10471;42.736;23.346;2024-01-27T05:40:05;31.40;;;13.67;;
20623;SDS011;10471;42.736;23.346;2024-01-27T05:42:32;26.47;;;11.60;;
20623;SDS011;10471;42.736;23.346;2024-01-27T05:44:57;30.60;;;13.37;;
20623;SDS011;10471;42.736;23.346;2024-01-27T05:47:23;26.83;;;11.03;;
20623;SDS011;10471;42.736;23.346;2024-01-27T05:49:48;24.40;;;10.77;;
20623;SDS011;10471;42.736;23.346;2024-01-27T05:52:13;22.63;;;10.83;;
20623;SDS011;10471;42.736;23.346;2024-01-27T05:54:39;26.23;;;11.43;;
20623;SDS011;10471;42.736;23.346;2024-01-27T05:57:06;26.87;;;12.27;;
20623;SDS011;10471;42.736;23.346;2024-01-27T05:59:32;24.60;;;11.63;;
20623;SDS011;10471;42.736;23.346;2024-01-27T06:01:57;26.03;;;12.13;;
20623;SDS011;10471;42.736;23.346;2024-01-27T06:04:23;23.40;;;12.00;;
20623;SDS011;10471;42.736;23.346;2024-01-27T06:06:48;21.37;;;9.63;;
20623;SDS011;10471;42.736;23.346;2024-01-27T06:09:14;22.20;;;10.40;;
20623;SDS011;10471;42.736;23.346;2024-01-27T06:11:39;20.93;;;10.57;;
20623;SDS011;10471;42.736;23.346;2024-01-27T06:14:05;18.07;;;8.73;;
20623;SDS011;10471;42.736;23.346;2024-01-27T06:16:31;25.83;;;11.27;;
20623;SDS011;10471;42.736;23.346;2024-01-27T06:18:57;22.97;;;10.33;;
20623;SDS011;10471;42.736;23.346;2024-01-27T06:21:23;19.70;;;8.43;;
20623;SDS011;10471;42.736;23.346;2024-01-27T06:23:48;23.67;;;9.37;;
20623;SDS011;10471;42.736;23.346;2024-01-27T06:26:13;32.70;;;15.20;;
20623;SDS011;10471;42.736;23.346;2024-01-27T06:28:39;22.63;;;9.53;;
20623;SDS011;10471;42.736;23.346;2024-01-27T06:31:05;25.33;;;11.07;;
20623;SDS011;10471;42.736;23.346;2024-01-27T06:33:32;27.83;;;12.50;;
20623;SDS011;10471;42.736;23.346;2024-01-27T06:36:00;36.57;;;15.23;;
20623;SDS011;10471;42.736;23.346;2024-01-27T06:38:26;38.47;;;15.13;;
20623;SDS011;10471;42.736;23.346;2024-01-27T06:40:52;20.27;;;11.07;;
20623;SDS011;10471;42.736;23.346;2024-01-27T06:43:17;21.60;;;9.37;;
20623;SDS011;10471;42.736;23.346;2024-01-27T06:45:43;22.70;;;9.37;;
20623;SDS011;10471;42.736;23.346;2024-01-27T06:48:08;19.40;;;9.30;;
20623;SDS011;10471;42.736;23.346;2024-01-27T06:50:34;13.63;;;7.63;;
20623;SDS011;10471;42.736;23.346;2024-01-27T06:52:59;15.00;;;6.87;;
20623;SDS011;10471;42.736;23.346;2024-01-27T06:55:25;21.73;;;8.30;;
20623;SDS011;10471;42.736;23.346;2024-01-27T06:57:51;18.63;;;7.03;;
20623;SDS011;10471;42.736;23.346;2024-01-27T07:00:16;16.33;;;7.13;;
20623;SDS011;10471;42.736;23.346;2024-01-27T07:02:43;15.97;;;7.33;;
20623;SDS011;10471;42.736;23.346;2024-01-27T07:05:08;14.17;;;6.90;;
20623;SDS011;10471;42.736;23.346;2024-01-27T07:07:34;16.70;;;8.20;;
20623;SDS011;10471;42.736;23.346;2024-01-27T07:10:00;49.00;;;19.80;;
20623;SDS011;10471;42.736;23.346;2024-01-27T07:12:26;13.73;;;6.47;;
20623;SDS011;10471;42.736;23.346;2024-01-27T07:14:51;16.87;;;6.97;;
20623;SDS011;10471;42.736;23.346;2024-01-27T07:17:17;12.27;;;6.10;;
20623;SDS011;10471;42.736;23.346;2024-01-27T07:19:42;19.17;;;9.17;;
20623;SDS011;10471;42.736;23.346;2024-01-27T07:22:08;20.73;;;9.73;;
20623;SDS011;10471;42.736;23.346;2024-01-27T07:24:33;11.77;;;6.67;;
20623;SDS011;10471;42.736;23.346;2024-01-27T07:27:02;12.53;;;6.20;;
20623;SDS011;10471;42.736;23.346;2024-01-27T07:29:28;8.27;;;5.20;;
20623;SDS011;10471;42.736;23.346;2024-01-27T07:31:54;6.63;;;4.30;;
20623;SDS011;10471;42.736;23.346;2024-01-27T07:34:20;4.40;;;3.53;;
20623;SDS011;10471;42.736;23.346;2024-01-27T07:36:45;5.57;;;3.63;;
20623;SDS011;10471;42.736;23.346;2024-01-27T07:39:13;5.20;;;3.13;;
20623;SDS011;10471;42.736;23.346;2024-01-27T07:41:38;6.10;;;3.57;;
20623;SDS011;10471;42.736;23.346;2024-01-27T07:44:10;6.20;;;3.33;;
20623;SDS011;10471;42.736;23.346;2024-01-27T07:46:40;8.67;;;3.50;;
20623;SDS011;10471;42.736;23.346;2024-01-27T07:49:06;4.97;;;2.97;;
20623;SDS011;10471;42.736;23.346;2024-01-27T07:51:32;3.97;;;2.80;;
20623;SDS011;10471;42.736;23.346;2024-01-27T07:53:58;4.27;;;2.57;;
20623;SDS011;10471;42.736;23.346;2024-01-27T07:56:24;5.97;;;3.50;;
20623;SDS011;10471;42.736;23.346;2024-01-27T07:58:50;7.00;;;3.77;;
20623;SDS011;10471;42.736;23.346;2024-01-27T08:01:15;6.50;;;3.73;;
20623;SDS011;10471;42.736;23.346;2024-01-27T08:03:42;6.03;;;4.20;;
20623;SDS011;10471;42.736;23.346;2024-01-27T08:06:10;5.30;;;4.53;;
20623;SDS011;10471;42.736;23.346;2024-01-27T08:08:40;7.17;;;5.20;;
20623;SDS011;10471;42.736;23.346;2024-01-27T08:11:06;10.00;;;5.33;;
20623;SDS011;10471;42.736;23.346;2024-01-27T08:13:31;10.00;;;4.80;;
20623;SDS011;10471;42.736;23.346;2024-01-27T08:15:57;8.37;;;5.77;;
20623;SDS011;10471;42.736;23.346;2024-01-27T08:18:22;11.27;;;5.80;;
20623;SDS011;10471;42.736;23.346;2024-01-27T08:20:48;9.33;;;5.70;;
20623;SDS011;10471;42.736;23.346;2024-01-27T08:23:14;9.30;;;6.03;;
20623;SDS011;10471;42.736;23.346;2024-01-27T08:25:39;11.47;;;6.60;;
20623;SDS011;10471;42.736;23.346;2024-01-27T08:28:05;11.43;;;6.57;;
20623;SDS011;10471;42.736;23.346;2024-01-27T08:30:30;10.63;;;6.13;;
20623;SDS011;10471;42.736;23.346;2024-01-27T08:32:56;10.33;;;6.90;;
20623;SDS011;10471;42.736;23.346;2024-01-27T08:35:21;13.57;;;8.00;;
20623;SDS011;10471;42.736;23.346;2024-01-27T08:37:46;8.80;;;6.00;;
20623;SDS011;10471;42.736;23.346;2024-01-27T08:40:12;11.97;;;6.07;;
20623;SDS011;10471;42.736;23.346;2024-01-27T08:42:38;10.47;;;6.50;;
20623;SDS011;10471;42.736;23.346;2024-01-27T08:45:04;12.77;;;6.80;;
20623;SDS011;10471;42.736;23.346;2024-01-27T08:47:31;7.77;;;5.27;;
20623;SDS011;10471;42.736;23.346;2024-01-27T08:49:56;6.60;;;4.93;;
20623;SDS011;10471;42.736;23.346;2024-01-27T08:52:22;7.93;;;5.23;;
20623;SDS011;10471;42.736;23.346;2024-01-27T08:54:47;7.27;;;5.43;;
20623;SDS011;10471;42.736;23.346;2024-01-27T08:57:12;5.37;;;4.00;;
20623;SDS011;10471;42.736;23.346;2024-01-27T08:59:38;5.97;;;3.70;;
20623;SDS011;10471;42.736;23.346;2024-01-27T09:02:03;5.33;;;4.10;;
20623;SDS011;10471;42.736;23.346;2024-01-27T09:04:29;6.10;;;4.80;;
20623;SDS011;10471;42.736;23.346;2024-01-27T09:06:55;7.27;;;3.97;;
20623;SDS011;10471;42.736;23.346;2024-01-27T09:09:20;4.97;;;3.90;;
20623;SDS011;10471;42.736;23.346;2024-01-27T09:11:46;4.57;;;3.63;;
20623;SDS011;10471;42.736;23.346;2024-01-27T09:14:11;6.53;;;3.80;;
20623;SDS011;10471;42.736;23.346;2024-01-27T09:16:37;4.73;;;3.60;;
20623;SDS011;10471;42.736;23.346;2024-01-27T09:19:03;6.43;;;3.67;;
20623;SDS011;10471;42.736;23.346;2024-01-27T09:21:28;5.20;;;3.67;;
20623;SDS011;10471;42.736;23.346;2024-01-27T09:23:55;4.90;;;3.70;;
20623;SDS011;10471;42.736;23.346;2024-01-27T09:26:22;5.90;;;3.40;;
20623;SDS011;10471;42.736;23.346;2024-01-27T09:28:48;3.67;;;3.23;;
20623;SDS011;10471;42.736;23.346;2024-01-27T09:31:25;3.13;;;2.83;;
20623;SDS011;10471;42.736;23.346;2024-01-27T09:33:52;3.33;;;2.80;;
20623;SDS011;10471;42.736;23.346;2024-01-27T09:36:19;4.67;;;3.37;;
20623;SDS011;10471;42.736;23.346;2024-01-27T09:38:45;5.37;;;3.27;;
20623;SDS011;10471;42.736;23.346;2024-01-27T09:41:12;6.40;;;3.10;;
20623;SDS011;10471;42.736;23.346;2024-01-27T09:43:41;7.10;;;4.13;;
20623;SDS011;10471;42.736;23.346;2024-01-27T09:46:09;3.80;;;3.40;;
20623;SDS011;10471;42.736;23.346;2024-01-27T09:48:41;6.30;;;4.40;;
20623;SDS011;10471;42.736;23.346;2024-01-27T09:51:08;7.00;;;3.47;;
20623;SDS011;10471;42.736;23.346;2024-01-27T09:53:35;3.70;;;3.40;;
20623;SDS011;10471;42.736;23.346;2024-01-27T09:56:01;7.37;;;4.67;;
20623;SDS011;10471;42.736;23.346;2024-01-27T09:58:28;4.20;;;3.10;;
20623;SDS011;10471;42.736;23.346;2024-01-27T10:00:57;4.83;;;3.90;;
20623;SDS011;10471;42.736;23.346;2024-01-27T10:03:24;7.10;;;3.90;;
20623;SDS011;10471;42.736;23.346;2024-01-27T10:05:51;6.77;;;4.90;;
20623;SDS011;10471;42.736;23.346;2024-01-27T10:08:18;3.03;;;2.33;;
20623;SDS011;10471;42.736;23.346;2024-01-27T10:10:45;3.80;;;3.03;;
20623;SDS011;10471;42.736;23.346;2024-01-27T10:13:10;3.07;;;2.57;;
20623;SDS011;10471;42.736;23.346;2024-01-27T10:15:39;2.87;;;2.57;;
20623;SDS011;10471;42.736;23.346;2024-01-27T10:18:05;2.90;;;2.60;;
20623;SDS011;10471;42.736;23.346;2024-01-27T10:20:31;6.17;;;4.80;;
20623;SDS011;10471;42.736;23.346;2024-01-27T10:22:57;4.73;;;3.60;;
20623;SDS011;10471;42.736;23.346;2024-01-27T10:25:22;4.00;;;3.03;;
20623;SDS011;10471;42.736;23.346;2024-01-27T10:27:48;4.17;;;3.73;;
20623;SDS011;10471;42.736;23.346;2024-01-27T10:30:17;5.23;;;4.10;;
20623;SDS011;10471;42.736;23.346;2024-01-27T10:32:43;5.47;;;3.43;;
20623;SDS011;10471;42.736;23.346;2024-01-27T10:35:19;7.30;;;4.07;;
20623;SDS011;10471;42.736;23.346;2024-01-27T10:37:44;5.30;;;4.10;;
20623;SDS011;10471;42.736;23.346;2024-01-27T10:40:10;5.73;;;4.73;;
20623;SDS011;10471;42.736;23.346;2024-01-27T10:42:37;4.60;;;3.20;;
20623;SDS011;10471;42.736;23.346;2024-01-27T10:45:03;6.40;;;4.10;;
20623;SDS011;10471;42.736;23.346;2024-01-27T10:47:31;8.93;;;6.50;;
20623;SDS011;10471;42.736;23.346;2024-01-27T10:49:58;7.87;;;4.23;;
20623;SDS011;10471;42.736;23.346;2024-01-27T10:52:25;7.63;;;5.00;;
20623;SDS011;10471;42.736;23.346;2024-01-27T10:55:03;7.77;;;3.80;;
20623;SDS011;10471;42.736;23.346;2024-01-27T10:57:34;7.70;;;5.70;;
20623;SDS011;10471;42.736;23.346;2024-01-27T11:00:01;5.20;;;3.50;;
20623;SDS011;10471;42.736;23.346;2024-01-27T11:02:32;5.37;;;3.27;;
20623;SDS011;10471;42.736;23.346;2024-01-27T11:05:00;5.27;;;3.90;;
20623;SDS011;10471;42.736;23.346;2024-01-27T11:07:28;4.07;;;3.53;;
20623;SDS011;10471;42.736;23.346;2024-01-27T11:09:57;5.50;;;4.00;;
20623;SDS011;10471;42.736;23.346;2024-01-27T11:12:22;4.50;;;4.00;;
20623;SDS011;10471;42.736;23.346;2024-01-27T11:14:48;5.43;;;4.47;;
20623;SDS011;10471;42.736;23.346;2024-01-27T11:17:14;5.73;;;4.70;;
20623;SDS011;10471;42.736;23.346;2024-01-27T11:19:41;4.63;;;3.70;;
20623;SDS011;10471;42.736;23.346;2024-01-27T11:22:06;5.60;;;4.23;;
20623;SDS011;10471;42.736;23.346;2024-01-27T11:24:32;9.00;;;4.47;;
20623;SDS011;10471;42.736;23.346;2024-01-27T11:27:04;7.90;;;5.07;;
20623;SDS011;10471;42.736;23.346;2024-01-27T11:29:31;4.50;;;4.10;;
20623;SDS011;10471;42.736;23.346;2024-01-27T11:31:59;5.20;;;3.80;;
20623;SDS011;10471;42.736;23.346;2024-01-27T11:34:27;5.90;;;4.63;;
20623;SDS011;10471;42.736;23.346;2024-01-27T11:36:52;8.50;;;5.13;;
20623;SDS011;10471;42.736;23.346;2024-01-27T11:39:27;17.40;;;7.03;;
20623;SDS011;10471;42.736;23.346;2024-01-27T11:42:07;18.00;;;8.50;;
20623;SDS011;10471;42.736;23.346;2024-01-27T11:44:36;9.23;;;5.13;;
20623;SDS011;10471;42.736;23.346;2024-01-27T11:47:01;13.07;;;7.23;;
20623;SDS011;10471;42.736;23.346;2024-01-27T11:49:27;8.07;;;5.23;;
20623;SDS011;10471;42.736;23.346;2024-01-27T11:51:53;15.37;;;8.00;;
20623;SDS011;10471;42.736;23.346;2024-01-27T11:54:18;9.03;;;6.30;;
20623;SDS011;10471;42.736;23.346;2024-01-27T11:56:44;7.77;;;5.43;;
20623;SDS011;10471;42.736;23.346;2024-01-27T11:59:12;6.07;;;5.13;;
20623;SDS011;10471;42.736;23.346;2024-01-27T12:01:37;4.97;;;4.47;;
20623;SDS011;10471;42.736;23.346;2024-01-27T12:04:04;11.60;;;7.13;;
20623;SDS011;10471;42.736;23.346;2024-01-27T12:06:30;7.53;;;5.10;;
20623;SDS011;10471;42.736;23.346;2024-01-27T12:08:56;6.70;;;5.47;;
20623;SDS011;10471;42.736;23.346;2024-01-27T12:11:22;5.97;;;4.20;;
20623;SDS011;10471;42.736;23.346;2024-01-27T12:13:49;6.43;;;4.50;;
20623;SDS011;10471;42.736;23.346;2024-01-27T12:16:14;9.37;;;5.83;;
20623;SDS011;10471;42.736;23.346;2024-01-27T12:18:40;9.47;;;5.63;;
20623;SDS011;10471;42.736;23.346;2024-01-27T12:21:06;8.50;;;4.97;;
20623;SDS011;10471;42.736;23.346;2024-01-27T12:23:31;7.27;;;4.53;;
20623;SDS011;10471;42.736;23.346;2024-01-27T12:25:57;9.67;;;6.20;;
20623;SDS011;10471;42.736;23.346;2024-01-27T12:28:22;7.33;;;4.43;;
20623;SDS011;10471;42.736;23.346;2024-01-27T12:30:52;5.47;;;4.30;;
20623;SDS011;10471;42.736;23.346;2024-01-27T12:33:18;12.53;;;6.70;;
20623;SDS011;10471;42.736;23.346;2024-01-27T12:35:48;6.60;;;4.27;;
20623;SDS011;10471;42.736;23.346;2024-01-27T12:38:14;7.93;;;5.50;;
20623;SDS011;10471;42.736;23.346;2024-01-27T12:40:39;16.07;;;7.90;;
20623;SDS011;10471;42.736;23.346;2024-01-27T12:43:05;17.70;;;9.50;;
20623;SDS011;10471;42.736;23.346;2024-01-27T12:45:31;12.63;;;6.87;;
20623;SDS011;10471;42.736;23.346;2024-01-27T12:47:59;7.93;;;5.00;;
20623;SDS011;10471;42.736;23.346;2024-01-27T12:50:25;12.63;;;7.00;;
20623;SDS011;10471;42.736;23.346;2024-01-27T12:52:50;10.43;;;5.20;;
20623;SDS011;10471;42.736;23.346;2024-01-27T12:55:16;6.03;;;4.10;;
20623;SDS011;10471;42.736;23.346;2024-01-27T12:57:41;14.43;;;7.37;;
20623;SDS011;10471;42.736;23.346;2024-01-27T13:00:07;12.50;;;6.43;;
20623;SDS011;10471;42.736;23.346;2024-01-27T13:02:39;11.23;;;6.63;;
20623;SDS011;10471;42.736;23.346;2024-01-27T13:05:05;14.57;;;6.10;;
20623;SDS011;10471;42.736;23.346;2024-01-27T13:07:30;3.77;;;3.07;;
20623;SDS011;10471;42.736;23.346;2024-01-27T13:09:56;9.80;;;5.50;;
20623;SDS011;10471;42.736;23.346;2024-01-27T13:12:21;7.43;;;5.07;;
20623;SDS011;10471;42.736;23.346;2024-01-27T13:14:47;5.13;;;3.63;;
20623;SDS011;10471;42.736;23.346;2024-01-27T13:17:14;10.30;;;4.97;;
20623;SDS011;10471;42.736;23.346;2024-01-27T13:19:40;8.47;;;4.40;;
20623;SDS011;10471;42.736;23.346;2024-01-27T13:22:06;8.87;;;4.20;;
20623;SDS011;10471;42.736;23.346;2024-01-27T13:24:32;9.00;;;5.20;;
20623;SDS011;10471;42.736;23.346;2024-01-27T13:26:57;10.87;;;5.67;;
20623;SDS011;10471;42.736;23.346;2024-01-27T13:29:23;7.60;;;3.80;;
20623;SDS011;10471;42.736;23.346;2024-01-27T13:31:49;13.40;;;5.17;;
20623;SDS011;10471;42.736;23.346;2024-01-27T13:34:14;7.50;;;4.07;;
20623;SDS011;10471;42.736;23.346;2024-01-27T13:36:40;5.30;;;3.10;;
20623;SDS011;10471;42.736;23.346;2024-01-27T13:39:05;9.33;;;4.53;;
20623;SDS011;10471;42.736;23.346;2024-01-27T13:41:30;9.40;;;4.63;;
20623;SDS011;10471;42.736;23.346;2024-01-27T13:43:56;9.00;;;4.60;;
20623;SDS011;10471;42.736;23.346;2024-01-27T13:46:21;8.87;;;4.63;;
20623;SDS011;10471;42.736;23.346;2024-01-27T13:48:48;12.90;;;5.00;;
20623;SDS011;10471;42.736;23.346;2024-01-27T13:51:14;11.00;;;5.23;;
20623;SDS011;10471;42.736;23.346;2024-01-27T13:53:39;14.67;;;5.60;;
20623;SDS011;10471;42.736;23.346;2024-01-27T13:56:05;10.80;;;4.70;;
20623;SDS011;10471;42.736;23.346;2024-01-27T13:58:31;11.10;;;5.60;;
20623;SDS011;10471;42.736;23.346;2024-01-27T14:00:56;10.67;;;3.97;;
20623;SDS011;10471;42.736;23.346;2024-01-27T14:03:22;9.03;;;4.67;;
20623;SDS011;10471;42.736;23.346;2024-01-27T14:05:48;4.77;;;3.30;;
20623;SDS011;10471;42.736;23.346;2024-01-27T14:08:13;3.93;;;3.10;;
20623;SDS011;10471;42.736;23.346;2024-01-27T14:10:40;4.63;;;2.90;;
20623;SDS011;10471;42.736;23.346;2024-01-27T14:13:06;5.73;;;2.80;;
20623;SDS011;10471;42.736;23.346;2024-01-27T14:15:34;6.20;;;2.90;;
20623;SDS011;10471;42.736;23.346;2024-01-27T14:18:01;8.00;;;4.30;;